Time;durP1;ratioP1;P1;durP2;ratioP2;P2;SDS_P1;SDS_P2;PMS_P1;PMS_P2;Temp;Humidity;BMP_temperature;BMP_pressure;BME280_temperature;BME280_humidity;BME280_pressure;Samples;Min_cycle;Max_cycle;Signal;HPM_P1;HPM_P2
2022/09/30 00:00:30;;;;;;;;;;;;;;;63.08;3.66;100801.19;5099197;28;20370;-66
2022/09/30 00:02:56;;;;;;;;;;;;;;;61.29;4.19;100806.44;5100323;28;20365;-67
2022/09/30 00:05:22;;;;;;;;;;;;;;;60.86;4.85;100802.47;5083936;28;19982;-68
2022/09/30 00:07:49;;;;;;;;;;;;;;;63.62;3.45;100806.13;5102670;28;19928;-67
2022/09/30 00:10:16;;;;;;;;;;;;;;;65.71;1.78;100813.94;5104841;28;19920;-68
2022/09/30 00:12:42;;;;;;;;;;;;;;;65.65;2.29;100816.59;5104992;28;19916;-68
2022/09/30 00:15:08;;;;;;;;;;;;;;;66.85;1.74;100823.59;5093561;28;20293;-67
2022/09/30 00:17:35;;;;;;;;;;;;;;;63.41;3.67;100821.00;5111704;28;19924;-67
2022/09/30 00:20:01;;;;;;;;;;;;;;;63.45;3.01;100817.53;5104783;28;19920;-70
2022/09/30 00:22:28;;;;;;;;;;;;;;;65.33;2.66;100812.56;5102493;28;20399;-68
2022/09/30 00:24:54;;;;;;;;;;;;;;;65.63;2.66;100808.38;5105393;28;20039;-66
2022/09/30 00:27:20;;;;;;;;;;;;;;;66.72;1.70;100815.53;5113121;28;19916;-65
2022/09/30 00:29:47;;;;;;;;;;;;;;;67.56;1.54;100819.56;5110675;28;20298;-67
2022/09/30 00:32:13;;;;;;;;;;;;;;;66.20;2.13;100823.25;5093454;28;19970;-67
2022/09/30 00:34:41;;;;;;;;;;;;;;;64.77;2.92;100816.78;5112859;28;19924;-68
2022/09/30 00:37:08;;;;;;;;;;;;;;;66.50;1.89;100814.41;5113028;28;19916;-67
2022/09/30 00:39:36;;;;;;;;;;;;;;;63.01;3.03;100816.91;5112509;28;20018;-68
2022/09/30 00:42:05;;;;;;;;;;;;;;;65.01;2.42;100821.16;5109746;28;19995;-69
2022/09/30 00:44:45;;;;;;;;;;;;;;;61.02;4.83;100818.41;5061391;28;19927;-68
2022/09/30 00:47:14;;;;;;;;;;;;;;;60.99;4.48;100816.72;5105662;28;20404;-69
2022/09/30 00:49:41;;;;;;;;;;;;;;;59.17;5.62;100818.53;5102828;28;19973;-65
2022/09/30 00:52:07;;;;;;;;;;;;;;;58.58;6.06;100813.59;5095625;27;19943;-68
2022/09/30 00:54:33;;;;;;;;;;;;;;;57.36;6.18;100823.38;5111613;27;20366;-68
2022/09/30 00:57:01;;;;;;;;;;;;;;;56.81;7.16;100818.34;5102520;28;20448;-68
2022/09/30 00:59:30;;;;;;;;;;;;;;;55.59;7.88;100821.34;5089902;28;19926;-69
2022/09/30 01:01:56;;;;;;;;;;;;;;;55.13;7.38;100820.44;5109119;28;19919;-65
2022/09/30 01:04:24;;;;;;;;;;;;;;;53.84;8.97;100811.56;5107316;28;19977;-66
2022/09/30 01:06:50;;;;;;;;;;;;;;;54.78;8.12;100808.22;5108294;28;20469;-66
2022/09/30 01:09:17;;;;;;;;;;;;;;;54.53;7.84;100804.94;5108098;28;19939;-67
2022/09/30 01:11:44;;;;;;;;;;;;;;;54.64;8.48;100791.44;5109215;28;20439;-66
2022/09/30 01:14:14;;;;;;;;;;;;;;;54.05;8.51;100802.84;5086325;28;20049;-67
2022/09/30 01:16:53;;;;;;;;;;;;;;;54.03;8.86;100793.91;5107586;28;19916;-66
2022/09/30 01:19:19;;;;;;;;;;;;;;;53.23;8.75;100797.16;5085916;28;19943;-67
2022/09/30 01:21:48;;;;;;;;;;;;;;;54.15;7.91;100793.03;5102796;28;19919;-67
2022/09/30 01:24:14;;;;;;;;;;;;;;;53.22;8.46;100795.59;5108255;28;19964;-65
2022/09/30 01:27:04;;;;;;;;;;;;;;;53.57;8.34;100784.75;5106791;28;19955;-68
2022/09/30 01:29:30;;;;;;;;;;;;;;;53.90;8.54;100788.94;5090436;28;19966;-67
2022/09/30 01:32:14;;;;;;;;;;;;;;;53.20;8.99;100788.78;5105325;28;19985;-67
2022/09/30 01:34:49;;;;;;;;;;;;;;;53.75;8.12;100791.72;5107209;28;19988;-68
2022/09/30 01:37:32;;;;;;;;;;;;;;;52.74;9.47;100803.50;5109140;28;19919;-68
2022/09/30 01:40:04;;;;;;;;;;;;;;;53.37;8.71;100789.97;5106861;28;19977;-68
2022/09/30 01:42:49;;;;;;;;;;;;;;;53.49;8.64;100798.41;5107827;28;19942;-68
2022/09/30 01:45:18;;;;;;;;;;;;;;;52.75;9.05;100801.38;5106569;28;19920;-66
2022/09/30 01:47:50;;;;;;;;;;;;;;;53.32;8.52;100801.69;5108923;28;20384;-67
2022/09/30 01:50:16;;;;;;;;;;;;;;;53.80;8.05;100802.41;5108122;28;19922;-69
2022/09/30 01:53:00;;;;;;;;;;;;;;;52.71;9.35;100821.25;5088743;28;19920;-69
2022/09/30 01:55:37;;;;;;;;;;;;;;;52.49;9.64;100808.72;5101884;28;19923;-67
2022/09/30 01:58:08;;;;;;;;;;;;;;;52.22;9.33;100816.59;5084930;28;20298;-68
2022/09/30 02:00:37;;;;;;;;;;;;;;;53.07;8.64;100813.63;5101283;28;20451;-70
2022/09/30 02:03:21;;;;;;;;;;;;;;;52.23;9.16;100817.38;5098620;28;19924;-68
2022/09/30 02:05:50;;;;;;;;;;;;;;;52.82;8.60;100818.91;5101173;28;19920;-70
2022/09/30 02:08:34;;;;;;;;;;;;;;;52.89;8.56;100829.06;5105076;28;19915;-68
2022/09/30 02:11:05;;;;;;;;;;;;;;;51.38;10.18;100822.22;5104816;28;19942;-69
2022/09/30 02:13:50;;;;;;;;;;;;;;;52.39;9.10;100830.03;5100340;28;20396;-68
2022/09/30 02:16:21;;;;;;;;;;;;;;;52.69;8.60;100827.59;5081598;28;20008;-68
2022/09/30 02:18:51;;;;;;;;;;;;;;;52.92;9.33;100830.03;5100729;28;19920;-67
2022/09/30 02:21:25;;;;;;;;;;;;;;;52.68;9.40;100828.16;5097412;28;19938;-69
2022/09/30 02:23:54;;;;;;;;;;;;;;;52.03;9.78;100826.69;5069922;28;20415;-68
2022/09/30 02:26:26;;;;;;;;;;;;;;;51.42;9.88;100834.25;5100433;28;20002;-67
2022/09/30 02:29:09;;;;;;;;;;;;;;;51.07;10.13;100830.25;5102846;28;20022;-67
2022/09/30 02:31:40;;;;;;;;;;;;;;;51.59;10.10;100835.56;5102018;28;20454;-64
2022/09/30 02:34:36;;;;;;;;;;;;;;;52.33;9.63;100844.63;5099912;28;19928;-66
2022/09/30 02:37:09;;;;;;;;;;;;;;;51.71;9.70;100844.88;5089801;28;19934;-66
2022/09/30 02:39:35;;;;;;;;;;;;;;;52.44;9.93;100849.47;5101367;28;19920;-66
2022/09/30 02:42:11;;;;;;;;;;;;;;;51.04;10.96;100849.50;5098755;28;19926;-65
2022/09/30 02:44:37;;;;;;;;;;;;;;;52.18;9.67;100853.09;5103359;28;19920;-67
2022/09/30 02:47:09;;;;;;;;;;;;;;;51.22;10.66;100852.97;5108510;28;19920;-66
2022/09/30 02:49:57;;;;;;;;;;;;;;;52.08;10.18;100860.66;5107012;28;19920;-69
2022/09/30 02:52:23;;;;;;;;;;;;;;;50.82;11.23;100861.34;5099990;28;20022;-65
2022/09/30 02:54:53;;;;;;;;;;;;;;;51.25;10.88;100858.44;5106873;28;20370;-66
2022/09/30 02:57:26;;;;;;;;;;;;;;;51.33;10.39;100861.47;5103498;28;19920;-66
2022/09/30 02:59:52;;;;;;;;;;;;;;;50.63;11.01;100864.13;5102750;28;19927;-69
2022/09/30 03:02:19;;;;;;;;;;;;;;;50.57;11.31;100863.44;5103193;28;19928;-66
2022/09/30 03:04:47;;;;;;;;;;;;;;;50.51;11.05;100856.13;5109346;28;19950;-69
2022/09/30 03:07:13;;;;;;;;;;;;;;;50.81;11.38;100858.97;5108366;28;20366;-69
2022/09/30 03:09:40;;;;;;;;;;;;;;;49.83;11.86;100858.81;5111017;28;20367;-68
2022/09/30 03:12:11;;;;;;;;;;;;;;;50.73;10.85;100853.03;5109473;28;19922;-65
2022/09/30 03:14:49;;;;;;;;;;;;;;;50.70;10.99;100845.44;5099399;28;19924;-65
2022/09/30 03:17:23;;;;;;;;;;;;;;;49.99;11.44;100854.22;5103067;28;19919;-66
2022/09/30 03:20:08;;;;;;;;;;;;;;;50.51;10.61;100853.25;5093921;28;19981;-68
2022/09/30 03:22:34;;;;;;;;;;;;;;;49.59;11.25;100859.47;5109868;28;19920;-68
2022/09/30 03:25:19;;;;;;;;;;;;;;;50.07;11.04;100846.53;5105607;28;19916;-68
2022/09/30 03:27:48;;;;;;;;;;;;;;;50.26;10.80;100843.72;5089195;28;20419;-67
2022/09/30 03:30:16;;;;;;;;;;;;;;;50.00;11.07;100838.47;5106686;28;20427;-68
2022/09/30 03:32:42;;;;;;;;;;;;;;;50.25;11.66;100847.94;5108726;28;19927;-65
2022/09/30 03:35:14;;;;;;;;;;;;;;;50.54;11.12;100843.47;5108730;28;20044;-68
2022/09/30 03:37:47;;;;;;;;;;;;;;;50.03;11.53;100846.06;5097355;28;19920;-67
2022/09/30 03:40:17;;;;;;;;;;;;;;;50.05;10.95;100844.19;5101228;28;20015;-66
2022/09/30 03:42:46;;;;;;;;;;;;;;;50.15;11.68;100856.19;5097619;28;19943;-69
2022/09/30 03:45:23;;;;;;;;;;;;;;;49.91;11.16;100860.56;5097839;28;20674;-66
2022/09/30 03:47:52;;;;;;;;;;;;;;;50.70;11.04;100857.78;5097023;28;19982;-67
2022/09/30 03:50:20;;;;;;;;;;;;;;;51.10;10.72;100861.00;5101638;28;19920;-65
2022/09/30 03:52:47;;;;;;;;;;;;;;;51.56;10.45;100864.88;5100501;28;19970;-68
2022/09/30 03:55:15;;;;;;;;;;;;;;;51.60;10.63;100862.44;5099968;28;19920;-66
2022/09/30 03:57:43;;;;;;;;;;;;;;;51.57;10.05;100860.66;5099915;28;19926;-64
2022/09/30 04:00:12;;;;;;;;;;;;;;;51.84;10.22;100858.66;5100691;28;19927;-64
2022/09/30 04:02:39;;;;;;;;;;;;;;;51.73;10.35;100855.94;5103167;28;19924;-69
2022/09/30 04:05:05;;;;;;;;;;;;;;;51.87;9.98;100857.53;5099226;28;19916;-65
2022/09/30 04:07:32;;;;;;;;;;;;;;;51.73;10.41;100850.16;5099550;28;19995;-66
2022/09/30 04:09:58;;;;;;;;;;;;;;;51.66;10.76;100854.44;5096267;28;19928;-68
2022/09/30 04:12:25;;;;;;;;;;;;;;;50.07;11.64;100849.44;5097085;28;20080;-67
2022/09/30 04:14:51;;;;;;;;;;;;;;;51.55;10.81;100854.63;5082151;28;20535;-62
2022/09/30 04:17:18;;;;;;;;;;;;;;;51.54;10.65;100850.94;5096558;28;19928;-66
2022/09/30 04:19:44;;;;;;;;;;;;;;;50.74;11.66;100849.56;5093777;28;19920;-69
2022/09/30 04:22:11;;;;;;;;;;;;;;;50.52;11.32;100849.81;5107356;28;19980;-70
2022/09/30 04:24:38;;;;;;;;;;;;;;;51.14;11.01;100846.22;5099289;28;19923;-68
2022/09/30 04:27:04;;;;;;;;;;;;;;;51.30;10.67;100845.19;5104008;28;19926;-68
2022/09/30 04:29:31;;;;;;;;;;;;;;;51.48;10.88;100853.13;5083736;28;19923;-69
2022/09/30 04:31:57;;;;;;;;;;;;;;;51.17;10.74;100851.69;5086570;28;20374;-66
2022/09/30 04:34:23;;;;;;;;;;;;;;;51.70;10.81;100851.19;5110021;28;19917;-67
2022/09/30 04:36:50;;;;;;;;;;;;;;;51.90;10.21;100850.66;5106216;28;20010;-67
2022/09/30 04:39:16;;;;;;;;;;;;;;;51.71;10.67;100847.00;5100569;28;19924;-69
2022/09/30 04:41:42;;;;;;;;;;;;;;;51.74;10.95;100857.50;5103010;28;19920;-68
2022/09/30 04:44:09;;;;;;;;;;;;;;;51.35;10.82;100858.81;5101764;28;19928;-66
2022/09/30 04:46:36;;;;;;;;;;;;;;;51.61;10.60;100861.88;5107051;28;19919;-67
2022/09/30 04:49:03;;;;;;;;;;;;;;;51.74;10.26;100863.31;5079762;28;19935;-69
2022/09/30 04:51:29;;;;;;;;;;;;;;;51.66;10.29;100852.31;5097267;28;19924;-68
2022/09/30 04:53:55;;;;;;;;;;;;;;;51.50;10.37;100862.03;5081567;28;20427;-71
2022/09/30 04:56:23;;;;;;;;;;;;;;;51.50;10.51;100858.38;5094237;28;20031;-70
2022/09/30 04:58:50;;;;;;;;;;;;;;;51.64;10.95;100860.78;5102988;28;19916;-67
2022/09/30 05:01:17;;;;;;;;;;;;;;;51.24;10.48;100856.09;5086367;28;20010;-67
2022/09/30 05:03:44;;;;;;;;;;;;;;;51.00;11.28;100863.50;5100364;28;19924;-69
2022/09/30 05:06:11;;;;;;;;;;;;;;;50.58;11.06;100864.22;5097725;28;19919;-68
2022/09/30 05:08:37;;;;;;;;;;;;;;;50.73;10.98;100858.81;5081368;28;20003;-68
2022/09/30 05:11:10;;;;;;;;;;;;;;;51.02;11.14;100857.97;5104964;28;19920;-68
2022/09/30 05:13:37;;;;;;;;;;;;;;;50.86;11.20;100861.81;5103862;28;19959;-68
2022/09/30 05:16:04;;;;;;;;;;;;;;;51.05;10.80;100856.88;5102797;28;19995;-68
2022/09/30 05:18:32;;;;;;;;;;;;;;;50.79;10.93;100859.50;5102619;28;19920;-68
2022/09/30 05:20:59;;;;;;;;;;;;;;;51.29;10.37;100858.13;5106776;28;19927;-67
2022/09/30 05:23:26;;;;;;;;;;;;;;;51.23;10.39;100860.31;5100205;28;19932;-66
2022/09/30 05:25:53;;;;;;;;;;;;;;;51.09;10.81;100862.34;5097548;28;19919;-66
2022/09/30 05:28:19;;;;;;;;;;;;;;;50.91;10.87;100857.28;5100782;28;19942;-67
2022/09/30 05:30:46;;;;;;;;;;;;;;;50.99;10.86;100861.13;5105278;28;19969;-66
2022/09/30 05:33:13;;;;;;;;;;;;;;;51.08;10.32;100860.78;5111362;28;19958;-67
2022/09/30 05:35:40;;;;;;;;;;;;;;;51.34;10.14;100866.72;5096152;28;19965;-67
2022/09/30 05:38:07;;;;;;;;;;;;;;;50.98;10.33;100869.00;5108742;28;20269;-69
2022/09/30 05:40:33;;;;;;;;;;;;;;;50.99;10.50;100864.78;5097537;28;20006;-68
2022/09/30 05:42:59;;;;;;;;;;;;;;;51.17;10.71;100866.16;5103566;28;20642;-68
2022/09/30 05:45:26;;;;;;;;;;;;;;;51.07;11.07;100868.69;5103065;28;19915;-69
2022/09/30 05:47:53;;;;;;;;;;;;;;;51.23;10.45;100863.22;5105611;28;19927;-68
2022/09/30 05:50:19;;;;;;;;;;;;;;;51.05;10.81;100864.78;5106397;28;19927;-67
2022/09/30 05:52:46;;;;;;;;;;;;;;;50.98;10.91;100865.34;5099197;28;20475;-67
2022/09/30 05:55:12;;;;;;;;;;;;;;;51.07;10.41;100865.00;5104717;28;19916;-66
2022/09/30 05:57:39;;;;;;;;;;;;;;;50.96;10.84;100860.09;5098628;28;19931;-67
2022/09/30 06:00:05;;;;;;;;;;;;;;;51.04;10.50;100860.31;5102138;28;19939;-68
2022/09/30 06:02:37;;;;;;;;;;;;;;;51.03;10.81;100871.09;5100525;28;20080;-66
2022/09/30 06:05:05;;;;;;;;;;;;;;;50.98;10.92;100868.22;5104438;28;19923;-67
2022/09/30 06:07:36;;;;;;;;;;;;;;;50.94;10.79;100870.66;5104874;28;19917;-66
2022/09/30 06:10:04;;;;;;;;;;;;;;;50.89;11.54;100872.31;5107989;28;19924;-64
2022/09/30 06:12:30;;;;;;;;;;;;;;;50.89;10.82;100872.31;5116241;28;19988;-66
2022/09/30 06:14:57;;;;;;;;;;;;;;;50.91;11.15;100863.84;5105058;27;19920;-68
2022/09/30 06:17:23;;;;;;;;;;;;;;;50.70;11.15;100871.47;5107588;28;20010;-67
2022/09/30 06:19:49;;;;;;;;;;;;;;;50.82;11.24;100867.13;5104102;28;19920;-68
2022/09/30 06:22:16;;;;;;;;;;;;;;;50.82;11.08;100872.13;5121096;27;19924;-66
2022/09/30 06:24:44;;;;;;;;;;;;;;;50.61;11.37;100874.69;5092568;28;19920;-68
2022/09/30 06:27:10;;;;;;;;;;;;;;;50.79;11.40;100871.88;5088267;28;20361;-65
2022/09/30 06:29:37;;;;;;;;;;;;;;;50.79;11.46;100871.09;5104983;28;19980;-65
2022/09/30 06:32:03;;;;;;;;;;;;;;;50.78;11.46;100879.00;5104817;27;19916;-66
2022/09/30 06:34:30;;;;;;;;;;;;;;;50.56;11.08;100875.53;5088271;28;20415;-67
2022/09/30 06:36:56;;;;;;;;;;;;;;;50.57;11.71;100880.78;5104652;28;19912;-65
2022/09/30 06:39:23;;;;;;;;;;;;;;;50.41;11.44;100870.16;5107828;28;20414;-67
2022/09/30 06:41:49;;;;;;;;;;;;;;;50.32;11.04;100871.28;5103780;27;19920;-66
2022/09/30 06:44:23;;;;;;;;;;;;;;;50.61;12.08;100886.28;5103703;28;19927;-66
2022/09/30 06:46:52;;;;;;;;;;;;;;;50.68;12.21;100885.69;5105215;28;19928;-65
2022/09/30 06:49:18;;;;;;;;;;;;;;;50.22;11.90;100878.72;5100801;28;19981;-66
2022/09/30 06:51:45;;;;;;;;;;;;;;;50.18;12.39;100884.03;5099551;28;19920;-65
2022/09/30 06:54:12;;;;;;;;;;;;;;;50.35;13.12;100881.03;5101231;28;20363;-64
2022/09/30 06:56:38;;;;;;;;;;;;;;;50.09;13.00;100882.25;5100791;28;20019;-66
2022/09/30 06:59:04;;;;;;;;;;;;;;;50.20;13.52;100878.50;5101656;28;19920;-66
2022/09/30 07:01:31;;;;;;;;;;;;;;;50.33;13.12;100874.97;5100356;28;19995;-66
2022/09/30 07:04:06;;;;;;;;;;;;;;;50.14;14.02;100875.66;5100822;28;19942;-65
2022/09/30 07:06:33;;;;;;;;;;;;;;;49.91;14.54;100872.13;5101982;28;20549;-65
2022/09/30 07:08:59;;;;;;;;;;;;;;;50.16;14.61;100881.69;5099221;28;19959;-65
2022/09/30 07:11:25;;;;;;;;;;;;;;;50.10;15.03;100868.59;5100139;28;19928;-65
2022/09/30 07:13:52;;;;;;;;;;;;;;;49.47;15.53;100866.63;5100387;28;19920;-66
2022/09/30 07:16:19;;;;;;;;;;;;;;;49.82;15.47;100868.78;5084215;28;20426;-64
2022/09/30 07:18:46;;;;;;;;;;;;;;;49.88;15.29;100878.19;5098952;28;20327;-63
2022/09/30 07:21:14;;;;;;;;;;;;;;;49.84;15.39;100866.94;5106794;28;19993;-64
2022/09/30 07:23:51;;;;;;;;;;;;;;;49.73;15.31;100869.91;5108909;28;19970;-65
2022/09/30 07:26:20;;;;;;;;;;;;;;;49.94;14.77;100860.81;5104656;28;19926;-64
2022/09/30 07:28:47;;;;;;;;;;;;;;;49.55;16.35;100867.63;5104564;28;19927;-64
2022/09/30 07:31:16;;;;;;;;;;;;;;;49.59;16.07;100850.81;5104476;28;20036;-65
2022/09/30 07:33:42;;;;;;;;;;;;;;;49.79;16.34;100856.22;5099209;28;19947;-65
2022/09/30 07:36:09;;;;;;;;;;;;;;;49.70;15.55;100850.75;5098328;28;19935;-67
2022/09/30 07:38:37;;;;;;;;;;;;;;;49.78;15.35;100848.84;5099767;28;19972;-66
2022/09/30 07:41:14;;;;;;;;;;;;;;;49.79;15.92;100853.31;5107543;28;19927;-67
2022/09/30 07:43:42;;;;;;;;;;;;;;;49.71;16.57;100857.31;5100890;28;19919;-66
2022/09/30 07:46:09;;;;;;;;;;;;;;;49.55;15.92;100844.50;5103297;28;19924;-67
2022/09/30 07:48:46;;;;;;;;;;;;;;;49.43;16.02;100852.47;5106550;28;20018;-65
2022/09/30 07:51:18;;;;;;;;;;;;;;;49.16;17.12;100854.16;5103360;28;19916;-67
2022/09/30 07:53:46;;;;;;;;;;;;;;;49.12;16.82;100856.53;5088512;28;19931;-65
2022/09/30 07:56:13;;;;;;;;;;;;;;;48.99;17.49;100854.22;5106167;28;20086;-67
2022/09/30 07:58:39;;;;;;;;;;;;;;;49.04;17.38;100846.88;5108299;28;19931;-68
2022/09/30 08:01:06;;;;;;;;;;;;;;;49.18;17.25;100857.28;5099598;28;19943;-67
2022/09/30 08:03:34;;;;;;;;;;;;;;;48.40;18.30;100858.28;5089554;28;19920;-66
2022/09/30 08:06:04;;;;;;;;;;;;;;;48.90;17.33;100847.97;5106570;28;19918;-66
2022/09/30 08:08:30;;;;;;;;;;;;;;;49.12;17.02;100847.88;5106742;28;19941;-66
2022/09/30 08:11:00;;;;;;;;;;;;;;;48.73;17.39;100848.03;5109970;28;19926;-66
2022/09/30 08:13:26;;;;;;;;;;;;;;;48.46;17.70;100843.84;5086522;28;19920;-67
2022/09/30 08:15:53;;;;;;;;;;;;;;;48.41;17.37;100854.09;5088583;28;19924;-67
2022/09/30 08:18:19;;;;;;;;;;;;;;;48.31;17.99;100857.78;5104793;28;19959;-66
2022/09/30 08:20:45;;;;;;;;;;;;;;;48.61;18.00;100855.91;5109270;28;19920;-67
2022/09/30 08:23:12;;;;;;;;;;;;;;;48.63;17.53;100852.50;5105643;28;20011;-66
2022/09/30 08:25:38;;;;;;;;;;;;;;;48.81;17.59;100842.47;5109788;28;19919;-66
2022/09/30 08:28:04;;;;;;;;;;;;;;;48.55;18.22;100849.34;5081908;28;19995;-65
2022/09/30 08:30:33;;;;;;;;;;;;;;;48.83;17.96;100848.50;5103261;28;19915;-66
2022/09/30 08:33:00;;;;;;;;;;;;;;;48.55;18.48;100842.78;5103163;28;20408;-67
2022/09/30 08:35:26;;;;;;;;;;;;;;;48.51;18.14;100840.19;5106616;28;19920;-67
2022/09/30 08:37:53;;;;;;;;;;;;;;;48.33;18.14;100841.53;5112857;28;20401;-66
2022/09/30 08:40:25;;;;;;;;;;;;;;;48.57;18.19;100846.72;5113407;28;20462;-68
2022/09/30 08:42:57;;;;;;;;;;;;;;;48.57;18.17;100840.94;5113458;28;20014;-66
2022/09/30 08:45:32;;;;;;;;;;;;;;;48.61;18.88;100850.13;5110829;28;19919;-66
2022/09/30 08:47:59;;;;;;;;;;;;;;;48.80;18.57;100847.47;5095246;28;19924;-66
2022/09/30 08:50:43;;;;;;;;;;;;;;;48.39;19.04;100847.28;5113620;28;19916;-65
2022/09/30 08:53:14;;;;;;;;;;;;;;;48.36;18.66;100839.69;5113420;28;20366;-66
2022/09/30 08:55:42;;;;;;;;;;;;;;;48.81;18.58;100842.47;5113503;28;19963;-66
2022/09/30 08:58:28;;;;;;;;;;;;;;;48.97;18.28;100841.66;5113208;28;19915;-65
2022/09/30 09:01:12;;;;;;;;;;;;;;;49.05;18.17;100848.47;5094069;28;19926;-66
2022/09/30 09:03:39;;;;;;;;;;;;;;;49.06;18.27;100849.25;5103073;28;19920;-66
2022/09/30 09:06:17;;;;;;;;;;;;;;;49.02;18.50;100849.53;5113213;28;20370;-65
2022/09/30 09:08:52;;;;;;;;;;;;;;;48.78;18.32;100852.19;5110475;28;20023;-67
2022/09/30 09:11:36;;;;;;;;;;;;;;;47.93;19.73;100857.22;5107283;28;19931;-66
2022/09/30 09:14:12;;;;;;;;;;;;;;;48.14;19.03;100852.00;5101419;28;19927;-66
2022/09/30 09:16:43;;;;;;;;;;;;;;;48.44;19.32;100852.25;5095337;28;19920;-68
2022/09/30 09:19:11;;;;;;;;;;;;;;;48.42;19.40;100840.44;5113213;28;19968;-67
2022/09/30 09:21:46;;;;;;;;;;;;;;;48.58;19.46;100848.31;5112833;28;19926;-67
2022/09/30 09:24:17;;;;;;;;;;;;;;;48.65;19.09;100844.88;5113319;28;19920;-67
2022/09/30 09:26:43;;;;;;;;;;;;;;;48.33;20.04;100852.28;5112760;28;19942;-66
2022/09/30 09:29:25;;;;;;;;;;;;;;;48.75;19.57;100853.25;5094043;28;19920;-66
2022/09/30 09:31:53;;;;;;;;;;;;;;;48.13;20.26;100856.19;5112111;28;20010;-66
2022/09/30 09:34:19;;;;;;;;;;;;;;;47.67;21.01;100859.53;5112427;28;20399;-68
2022/09/30 09:36:45;;;;;;;;;;;;;;;48.07;20.65;100847.53;5112126;28;20397;-66
2022/09/30 09:39:17;;;;;;;;;;;;;;;48.28;20.26;100861.69;5113468;28;19960;-67
2022/09/30 09:41:44;;;;;;;;;;;;;;;48.27;20.46;100854.38;5112942;28;19920;-68
2022/09/30 09:44:13;;;;;;;;;;;;;;;48.03;21.21;100863.53;5094803;28;20000;-68
2022/09/30 09:46:51;;;;;;;;;;;;;;;48.24;20.56;100858.31;5113429;28;19946;-67
2022/09/30 09:49:22;;;;;;;;;;;;;;;48.33;20.61;100846.50;5113555;28;19919;-66
2022/09/30 09:51:59;;;;;;;;;;;;;;;48.51;20.56;100848.84;5094833;28;19926;-67
2022/09/30 09:54:30;;;;;;;;;;;;;;;48.09;20.90;100852.78;5113465;28;19926;-68
2022/09/30 09:57:08;;;;;;;;;;;;;;;47.99;21.25;100855.16;5113263;28;20373;-67
2022/09/30 09:59:35;;;;;;;;;;;;;;;48.31;21.03;100854.91;5113313;28;19927;-66
2022/09/30 10:02:01;;;;;;;;;;;;;;;48.42;21.01;100841.25;5113275;28;19916;-66
2022/09/30 10:04:30;;;;;;;;;;;;;;;48.49;21.01;100836.25;5095086;28;19927;-67
2022/09/30 10:06:59;;;;;;;;;;;;;;;48.30;20.86;100847.53;5112980;28;19981;-65
2022/09/30 10:09:30;;;;;;;;;;;;;;;47.71;22.31;100842.78;5113548;28;19923;-67
2022/09/30 10:12:05;;;;;;;;;;;;;;;48.19;20.97;100844.66;5113209;28;19967;-66
2022/09/30 10:14:47;;;;;;;;;;;;;;;48.10;21.09;100834.16;5094666;28;19916;-66
2022/09/30 10:17:20;;;;;;;;;;;;;;;48.21;21.17;100833.38;5113422;28;20309;-66
2022/09/30 10:19:54;;;;;;;;;;;;;;;48.18;21.60;100834.44;5094628;28;20012;-66
2022/09/30 10:22:26;;;;;;;;;;;;;;;48.37;20.76;100830.50;5112910;28;19984;-68
2022/09/30 10:25:08;;;;;;;;;;;;;;;46.93;23.13;100835.44;5112760;28;20011;-66
2022/09/30 10:27:34;;;;;;;;;;;;;;;47.91;21.57;100833.91;5112816;28;19923;-67
2022/09/30 10:30:00;;;;;;;;;;;;;;;47.33;22.77;100836.38;5113107;28;19968;-66
2022/09/30 10:32:28;;;;;;;;;;;;;;;47.46;22.08;100828.06;5112909;28;19927;-67
2022/09/30 10:34:55;;;;;;;;;;;;;;;47.97;21.48;100828.16;5094753;28;19922;-67
2022/09/30 10:37:23;;;;;;;;;;;;;;;48.16;21.40;100834.19;5112852;28;19927;-67
2022/09/30 10:40:00;;;;;;;;;;;;;;;48.68;20.96;100823.66;5112988;28;20275;-66
2022/09/30 10:42:31;;;;;;;;;;;;;;;48.83;20.98;100831.19;5094895;28;19920;-67
2022/09/30 10:45:05;;;;;;;;;;;;;;;48.72;20.94;100821.25;5111351;28;19972;-66
2022/09/30 10:47:32;;;;;;;;;;;;;;;48.67;21.06;100836.50;5112823;28;20285;-66
2022/09/30 10:50:05;;;;;;;;;;;;;;;47.83;22.41;100833.63;5094407;28;19919;-65
2022/09/30 10:52:34;;;;;;;;;;;;;;;48.42;21.33;100832.59;5112710;28;19927;-66
2022/09/30 10:55:05;;;;;;;;;;;;;;;48.57;21.47;100814.97;5115675;28;19962;-67
2022/09/30 10:57:33;;;;;;;;;;;;;;;47.94;22.46;100832.88;5116377;28;20373;-65
2022/09/30 11:00:08;;;;;;;;;;;;;;;48.24;21.69;100830.25;5116281;28;20331;-66
2022/09/30 11:02:41;;;;;;;;;;;;;;;48.48;21.55;100828.88;5116066;28;19926;-66
2022/09/30 11:05:07;;;;;;;;;;;;;;;48.63;21.17;100829.41;5116268;28;19926;-66
2022/09/30 11:07:52;;;;;;;;;;;;;;;48.83;21.45;100834.06;5081072;28;19989;-66
2022/09/30 11:10:38;;;;;;;;;;;;;;;48.84;20.47;100827.78;5116259;28;20378;-66
2022/09/30 11:13:17;;;;;;;;;;;;;;;48.99;21.29;100839.00;5116175;28;19924;-66
2022/09/30 11:15:52;;;;;;;;;;;;;;;48.85;20.94;100845.88;5116104;28;20045;-66
2022/09/30 11:18:24;;;;;;;;;;;;;;;48.74;20.97;100835.16;5116080;28;20053;-66
2022/09/30 11:20:55;;;;;;;;;;;;;;;48.59;21.75;100837.56;5115807;28;19924;-65
2022/09/30 11:23:21;;;;;;;;;;;;;;;48.65;21.19;100830.44;5115951;28;19923;-68
2022/09/30 11:25:59;;;;;;;;;;;;;;;48.87;20.21;100838.25;5115946;28;19923;-67
2022/09/30 11:28:36;;;;;;;;;;;;;;;48.93;20.40;100846.91;5115960;28;19926;-65
2022/09/30 11:31:05;;;;;;;;;;;;;;;48.88;20.79;100844.81;5097340;28;20440;-68
2022/09/30 11:33:32;;;;;;;;;;;;;;;48.84;21.40;100845.09;5115529;28;19916;-66
2022/09/30 11:36:12;;;;;;;;;;;;;;;48.71;21.38;100845.66;5115569;28;20381;-67
2022/09/30 11:39:01;;;;;;;;;;;;;;;48.70;20.98;100841.22;5115744;28;19926;-66
2022/09/30 11:41:51;;;;;;;;;;;;;;;48.82;21.14;100846.94;5115764;28;20285;-67
2022/09/30 11:44:17;;;;;;;;;;;;;;;48.59;21.26;100846.22;5115538;28;19931;-66
2022/09/30 11:46:49;;;;;;;;;;;;;;;48.61;21.09;100847.25;5115292;28;20064;-65
2022/09/30 11:49:34;;;;;;;;;;;;;;;48.60;21.57;100854.34;5115592;28;19920;-68
2022/09/30 11:52:18;;;;;;;;;;;;;;;48.65;21.81;100852.75;5115058;28;19920;-68
2022/09/30 11:54:50;;;;;;;;;;;;;;;48.60;21.15;100857.22;5115266;28;19976;-66
2022/09/30 11:57:27;;;;;;;;;;;;;;;48.51;21.67;100859.59;5096861;28;19980;-66
2022/09/30 11:59:59;;;;;;;;;;;;;;;48.30;21.83;100859.88;5114536;27;20313;-67
2022/09/30 12:02:40;;;;;;;;;;;;;;;48.47;21.53;100859.06;5096831;28;19927;-67
2022/09/30 12:05:16;;;;;;;;;;;;;;;48.40;21.45;100857.50;5114271;28;19972;-66
2022/09/30 12:07:49;;;;;;;;;;;;;;;48.03;22.19;100858.53;5097033;28;19926;-67
2022/09/30 12:10:27;;;;;;;;;;;;;;;48.01;21.61;100861.16;5115115;28;20026;-65
2022/09/30 12:13:02;;;;;;;;;;;;;;;47.94;22.38;100861.69;5114885;28;20393;-66
2022/09/30 12:15:30;;;;;;;;;;;;;;;48.12;21.64;100861.19;5096763;28;19915;-67
2022/09/30 12:18:04;;;;;;;;;;;;;;;48.21;21.51;100873.75;5114765;28;19920;-67
2022/09/30 12:20:54;;;;;;;;;;;;;;;48.26;21.85;100868.00;5114386;28;20006;-67
2022/09/30 12:23:29;;;;;;;;;;;;;;;48.07;21.93;100864.81;5094144;28;19920;-66
2022/09/30 12:25:56;;;;;;;;;;;;;;;48.12;21.90;100866.13;5094402;28;19947;-67
2022/09/30 12:31:16;;;;;;;;;;;;;;;47.83;22.03;100867.41;5096024;28;20390;-65
2022/09/30 12:34:01;;;;;;;;;;;;;;;48.10;22.23;100869.53;5107714;28;19965;-68
2022/09/30 12:36:38;;;;;;;;;;;;;;;47.73;22.70;100874.72;5096157;28;20339;-65
2022/09/30 12:39:20;;;;;;;;;;;;;;;46.88;24.10;100873.59;5114276;28;19926;-65
2022/09/30 12:41:59;;;;;;;;;;;;;;;47.37;23.25;100871.47;5095980;28;20077;-66
2022/09/30 12:44:50;;;;;;;;;;;;;;;47.16;23.33;100872.97;5111061;28;19982;-65
2022/09/30 12:47:31;;;;;;;;;;;;;;;47.53;22.62;100870.75;5099461;28;19919;-66
2022/09/30 12:49:59;;;;;;;;;;;;;;;46.36;24.52;100876.63;5102778;28;19924;-66
2022/09/30 12:52:31;;;;;;;;;;;;;;;46.14;24.58;100869.88;5105000;28;19923;-67
2022/09/30 12:55:00;;;;;;;;;;;;;;;45.97;24.62;100872.59;5102472;28;20030;-67
2022/09/30 12:57:30;;;;;;;;;;;;;;;46.57;24.20;100876.53;5068200;28;20008;-68